createdAt,value
2022-10-12T00:01:33.303Z,1.00
2022-10-12T00:04:09.656Z,1.10
2022-10-12T00:06:54.832Z,1.03
2022-10-12T00:09:32.263Z,1.13
2022-10-12T00:12:10.306Z,0.70
2022-10-12T00:14:42.214Z,0.93
2022-10-12T00:17:19.799Z,1.03
2022-10-12T00:19:48.045Z,0.93
2022-10-12T00:22:17.269Z,0.93
2022-10-12T00:24:50.356Z,1.17
2022-10-12T00:27:26.725Z,1.53
2022-10-12T00:30:00.514Z,1.10
2022-10-12T00:32:32.226Z,0.80
2022-10-12T00:35:05.578Z,1.20
2022-10-12T00:37:37.159Z,1.10
2022-10-12T00:40:09.402Z,1.23
2022-10-12T00:42:49.580Z,1.10
2022-10-12T00:45:46.512Z,0.80
2022-10-12T00:48:32.111Z,0.97
2022-10-12T00:51:03.973Z,1.20
2022-10-12T00:53:40.726Z,1.00
2022-10-12T00:56:18.982Z,0.90
2022-10-12T00:59:00.357Z,1.20
2022-10-12T01:01:33.489Z,1.10
2022-10-12T01:04:02.672Z,1.00
2022-10-12T01:06:41.123Z,1.00
2022-10-12T01:09:11.779Z,0.90
2022-10-12T01:11:54.310Z,0.77
2022-10-12T01:14:40.284Z,0.97
2022-10-12T01:17:41.996Z,0.93
2022-10-12T01:20:35.836Z,1.27
2022-10-12T01:23:52.001Z,1.07
2022-10-12T01:27:06.272Z,1.10
2022-10-12T01:30:11.460Z,1.00
2022-10-12T01:33:15.587Z,1.30
2022-10-12T01:35:55.510Z,0.87
2022-10-12T01:38:51.387Z,1.10
2022-10-12T01:41:31.561Z,2.80
2022-10-12T01:44:13.948Z,1.00
2022-10-12T01:46:50.824Z,1.13
2022-10-12T01:49:44.501Z,1.30
2022-10-12T01:52:50.654Z,1.10
2022-10-12T01:55:35.182Z,0.83
2022-10-12T01:58:44.556Z,1.00
2022-10-12T02:01:23.443Z,0.97
2022-10-12T02:04:04.693Z,0.93
2022-10-12T02:06:49.762Z,1.23
2022-10-12T02:09:35.123Z,0.87
2022-10-12T02:12:16.846Z,0.80
2022-10-12T02:14:50.527Z,1.30
2022-10-12T02:17:26.706Z,0.90
2022-10-12T02:19:59.134Z,0.90
2022-10-12T02:22:39.666Z,1.10
2022-10-12T02:25:14.893Z,1.00
2022-10-12T02:27:51.491Z,1.00
2022-10-12T02:30:28.546Z,0.90
2022-10-12T02:33:10.554Z,1.00
2022-10-12T02:35:51.625Z,1.10
2022-10-12T02:38:33.747Z,1.07
2022-10-12T02:41:25.406Z,0.80
2022-10-12T02:44:07.836Z,0.90
2022-10-12T02:46:43.269Z,0.80
2022-10-12T02:49:22.347Z,1.30
2022-10-12T02:52:01.210Z,0.80
2022-10-12T02:54:43.515Z,1.00
2022-10-12T02:57:13.109Z,1.17
2022-10-12T02:59:45.401Z,1.00
2022-10-12T03:02:23.230Z,1.13
2022-10-12T03:04:58.355Z,1.07
2022-10-12T03:07:27.380Z,0.90
2022-10-12T03:10:03.093Z,1.07
2022-10-12T03:12:34.912Z,1.10
2022-10-12T03:15:09.087Z,1.23
2022-10-12T03:17:40.224Z,1.00
2022-10-12T03:20:17.037Z,1.30
2022-10-12T03:22:55.911Z,0.90
2022-10-12T03:25:41.158Z,1.10
2022-10-12T03:28:17.569Z,1.37
2022-10-12T03:30:49.288Z,0.97
2022-10-12T03:33:20.730Z,1.20
2022-10-12T03:36:01.563Z,0.90
2022-10-12T03:38:46.761Z,1.17
2022-10-12T03:41:19.058Z,1.17
2022-10-12T03:43:49.906Z,1.23
2022-10-12T03:46:18.400Z,1.10
2022-10-12T03:48:56.823Z,1.07
2022-10-12T03:51:28.714Z,0.93
2022-10-12T03:54:01.079Z,1.00
2022-10-12T03:56:35.466Z,0.90
2022-10-12T03:59:13.921Z,1.07
2022-10-12T04:01:44.775Z,0.90
2022-10-12T04:04:16.251Z,1.40
2022-10-12T04:06:46.698Z,1.03
2022-10-12T04:09:16.477Z,0.90
2022-10-12T04:11:56.276Z,1.10
2022-10-12T04:14:27.421Z,1.37
2022-10-12T04:16:57.259Z,0.90
2022-10-12T04:19:25.863Z,1.10
2022-10-12T04:21:57.030Z,0.90
2022-10-12T04:24:26.361Z,1.00
2022-10-12T04:27:02.214Z,1.10
2022-10-12T04:29:35.302Z,1.00
2022-10-12T04:32:12.363Z,1.00
2022-10-12T04:34:43.436Z,0.90
2022-10-12T04:37:16.887Z,0.90
2022-10-12T04:39:47.777Z,1.17
2022-10-12T04:42:26.363Z,1.40
2022-10-12T04:44:57.873Z,1.00
2022-10-12T04:47:28.616Z,1.17
2022-10-12T04:49:59.352Z,0.90
2022-10-12T04:52:32.325Z,1.37
2022-10-12T04:55:11.835Z,1.07
2022-10-12T04:57:53.824Z,1.10
2022-10-12T05:00:23.639Z,1.00
2022-10-12T05:03:02.316Z,1.20
2022-10-12T05:05:36.844Z,1.20
2022-10-12T05:08:06.095Z,1.40
2022-10-12T05:10:34.593Z,0.90
2022-10-12T05:13:10.018Z,1.10
2022-10-12T05:15:40.400Z,1.23
2022-10-12T05:18:11.448Z,0.77
2022-10-12T05:20:41.046Z,1.30
2022-10-12T05:23:13.211Z,1.00
2022-10-12T05:25:43.725Z,0.80
2022-10-12T05:28:16.670Z,0.87
2022-10-12T05:30:48.673Z,1.43
2022-10-12T05:33:20.149Z,0.80
2022-10-12T05:35:58.259Z,1.20
2022-10-12T05:38:28.895Z,1.10
2022-10-12T05:41:05.753Z,1.23
2022-10-12T05:43:40.560Z,1.40
2022-10-12T05:46:16.953Z,1.00
2022-10-12T05:48:52.981Z,0.90
2022-10-12T05:51:45.421Z,1.20
2022-10-12T05:54:23.222Z,1.00
2022-10-12T05:56:54.080Z,1.17
2022-10-12T05:59:27.103Z,1.27
2022-10-12T06:01:58.044Z,1.20
2022-10-12T06:04:30.118Z,1.37
2022-10-12T06:06:59.515Z,1.60
2022-10-12T06:09:32.804Z,1.30
2022-10-12T06:12:04.456Z,1.20
2022-10-12T06:14:37.496Z,1.40
2022-10-12T06:17:09.577Z,1.10
2022-10-12T06:19:43.370Z,1.00
2022-10-12T06:22:21.906Z,1.10
2022-10-12T06:25:25.787Z,0.90
2022-10-12T06:27:56.336Z,1.50
2022-10-12T15:22:24.899Z,6.50
2022-10-12T15:24:55.072Z,5.70
2022-10-12T15:27:23.504Z,5.73
2022-10-12T15:29:51.562Z,6.00
2022-10-12T15:32:20.651Z,5.80
2022-10-12T15:34:49.184Z,6.67
2022-10-12T15:37:17.984Z,6.83
2022-10-12T15:39:47.527Z,6.33
2022-10-12T15:42:15.623Z,6.53
2022-10-12T15:44:43.651Z,6.07
2022-10-12T15:47:12.067Z,7.30
2022-10-12T15:49:40.390Z,6.77
2022-10-12T15:52:11.409Z,6.50
2022-10-12T15:54:39.458Z,7.00
2022-10-12T15:57:10.144Z,7.50
2022-10-12T15:59:38.172Z,7.27
2022-10-12T16:02:11.084Z,6.17
2022-10-12T16:04:39.199Z,7.70
2022-10-12T16:07:07.230Z,6.10
2022-10-12T16:09:35.268Z,6.00
2022-10-12T16:12:23.117Z,6.33
2022-10-12T16:14:51.202Z,6.70
2022-10-12T16:17:19.218Z,6.20
2022-10-12T16:19:47.309Z,6.03
2022-10-12T16:22:15.360Z,5.83
2022-10-12T16:24:43.400Z,5.50
2022-10-12T16:27:11.637Z,5.90
2022-10-12T16:29:41.333Z,5.80
2022-10-12T16:32:09.427Z,5.53
2022-10-12T16:34:37.535Z,6.13
2022-10-12T16:37:05.582Z,5.83
2022-10-12T16:39:33.689Z,5.33
2022-10-12T16:42:01.795Z,6.70
2022-10-12T16:44:29.918Z,5.50
2022-10-12T16:46:59.738Z,6.53
2022-10-12T16:49:28.050Z,5.67
2022-10-12T16:51:56.184Z,5.20
2022-10-12T16:54:25.635Z,5.97
2022-10-12T16:56:53.686Z,6.00
2022-10-12T16:59:21.771Z,5.50
2022-10-12T17:01:49.899Z,6.00
2022-10-12T17:04:19.458Z,5.67
2022-10-12T17:06:48.127Z,4.60
2022-10-12T17:09:16.600Z,6.67
2022-10-12T17:11:44.630Z,6.97
2022-10-12T17:14:16.567Z,87.37
2022-10-12T17:16:50.568Z,58.20
2022-10-12T17:19:22.838Z,22.67
2022-10-12T17:21:52.448Z,13.30
2022-10-12T17:24:23.953Z,7.23
2022-10-12T17:26:52.072Z,5.70
2022-10-12T17:29:21.329Z,5.47
2022-10-12T17:31:50.586Z,6.53
2022-10-12T17:34:22.220Z,5.60
2022-10-12T17:36:51.718Z,5.83
2022-10-12T17:39:19.882Z,5.37
2022-10-12T17:41:48.699Z,4.90
2022-10-12T17:44:17.076Z,6.67
2022-10-12T17:46:46.109Z,4.13
2022-10-12T17:49:24.244Z,4.63
2022-10-12T17:51:54.281Z,4.43
2022-10-12T17:54:25.118Z,4.30
2022-10-12T17:56:53.676Z,4.90
2022-10-12T17:59:22.078Z,4.60
2022-10-12T18:01:51.041Z,5.00
2022-10-12T18:04:19.463Z,4.90
2022-10-12T18:06:47.696Z,5.40
2022-10-12T18:09:17.188Z,5.30
2022-10-12T18:11:45.524Z,4.67
2022-10-12T18:14:14.174Z,4.83
2022-10-12T18:16:42.555Z,4.97
2022-10-12T18:19:11.806Z,4.67
2022-10-12T18:21:40.473Z,4.93
2022-10-12T18:24:16.063Z,5.53
2022-10-12T18:26:47.433Z,6.13
2022-10-12T18:29:18.892Z,4.70
2022-10-12T18:31:47.192Z,4.13
2022-10-12T18:34:15.322Z,4.80
2022-10-12T18:36:43.562Z,4.30
2022-10-12T18:39:11.782Z,4.97
2022-10-12T18:41:39.885Z,5.00
2022-10-12T18:44:10.852Z,4.40
2022-10-12T18:46:39.138Z,4.20
2022-10-12T18:49:10.334Z,3.83
2022-10-12T18:51:41.048Z,4.53
2022-10-12T18:54:11.479Z,4.70
2022-10-12T18:56:40.515Z,3.90
2022-10-12T18:59:11.328Z,4.80
2022-10-12T19:01:47.400Z,5.10
2022-10-12T19:04:15.548Z,5.77
2022-10-12T19:06:44.116Z,4.83
2022-10-12T19:09:14.146Z,5.53
2022-10-12T19:11:42.395Z,4.30
2022-10-12T19:14:16.000Z,5.30
2022-10-12T19:16:45.492Z,4.83
2022-10-12T19:19:20.550Z,4.53
2022-10-12T19:21:49.459Z,5.40
2022-10-12T19:24:18.028Z,5.20
2022-10-12T19:26:46.160Z,5.50
2022-10-12T19:29:15.965Z,5.63
2022-10-12T19:31:46.173Z,4.90
2022-10-12T19:34:15.864Z,4.43
2022-10-12T19:36:44.009Z,5.23
2022-10-12T19:39:21.901Z,5.87
2022-10-12T19:41:51.023Z,6.10
2022-10-12T19:44:20.770Z,5.50
2022-10-12T19:46:49.449Z,5.70
2022-10-12T19:49:18.829Z,5.57
2022-10-12T19:51:47.515Z,6.77
2022-10-12T19:54:16.408Z,6.70
2022-10-12T19:56:44.529Z,6.03
2022-10-12T19:59:12.662Z,7.63
2022-10-12T20:01:42.309Z,7.90
2022-10-12T20:04:11.953Z,7.30
2022-10-12T20:06:40.370Z,7.37
2022-10-12T20:09:11.464Z,7.27
2022-10-12T20:11:39.655Z,7.80
2022-10-12T20:14:08.288Z,7.63
2022-10-12T20:16:54.853Z,6.80
2022-10-12T20:19:23.132Z,7.10
2022-10-12T20:21:51.198Z,6.70
2022-10-12T20:24:57.329Z,6.33
2022-10-12T20:27:25.391Z,5.10
2022-10-12T20:29:53.542Z,5.20
2022-10-12T20:32:22.984Z,5.10
2022-10-12T20:34:52.571Z,5.93
2022-10-12T20:37:21.486Z,5.07
2022-10-12T20:39:53.385Z,5.27
2022-10-12T20:42:22.407Z,4.80
2022-10-12T20:44:50.656Z,5.10
2022-10-12T20:47:19.024Z,5.30
2022-10-12T20:49:48.681Z,5.80
2022-10-12T20:52:17.070Z,5.33
2022-10-12T20:54:45.722Z,5.50
2022-10-12T20:57:13.787Z,5.87
2022-10-12T20:59:45.044Z,6.03
2022-10-12T21:02:13.119Z,6.50
2022-10-12T21:04:41.250Z,5.60
2022-10-12T21:07:14.118Z,5.57
2022-10-12T21:09:42.535Z,4.43
2022-10-12T21:12:10.959Z,4.53
2022-10-12T21:14:39.253Z,4.33
2022-10-12T21:17:07.301Z,4.23
2022-10-12T21:19:35.732Z,4.13
2022-10-12T21:22:03.843Z,3.60
2022-10-12T21:24:33.472Z,3.17
2022-10-12T21:27:01.543Z,3.57
2022-10-12T21:29:29.873Z,4.00
2022-10-12T21:31:58.191Z,3.67
2022-10-12T21:34:26.398Z,3.50
2022-10-12T21:36:54.455Z,3.10
2022-10-12T21:39:22.631Z,2.87
2022-10-12T21:41:52.022Z,4.60
2022-10-12T21:44:20.091Z,3.27
2022-10-12T21:46:48.151Z,3.30
2022-10-12T21:49:16.204Z,3.67
2022-10-12T21:51:44.244Z,4.07
2022-10-12T21:54:12.407Z,3.20
2022-10-12T21:56:40.567Z,3.73
2022-10-12T21:59:11.792Z,3.70
2022-10-12T22:01:41.605Z,3.63
2022-10-12T22:04:24.300Z,3.77
2022-10-12T22:07:19.412Z,3.10
2022-10-12T22:10:43.479Z,3.50
2022-10-12T22:13:21.106Z,3.97
2022-10-12T22:16:01.325Z,3.33
2022-10-12T22:18:29.583Z,3.37
2022-10-12T22:20:58.028Z,2.70
2022-10-12T22:23:26.183Z,2.80
2022-10-12T22:25:54.583Z,4.07
2022-10-12T22:28:22.699Z,3.70
2022-10-12T22:30:52.121Z,3.60
2022-10-12T22:33:20.172Z,3.17
2022-10-12T22:35:54.076Z,3.17
2022-10-12T22:38:22.669Z,3.23
2022-10-12T22:40:57.501Z,3.37
2022-10-12T22:43:25.953Z,4.03
2022-10-12T22:45:56.037Z,4.60
2022-10-12T22:48:25.887Z,4.10
2022-10-12T22:50:55.116Z,4.93
2022-10-12T22:53:24.490Z,4.23
2022-10-12T22:55:58.863Z,4.50
2022-10-12T22:58:27.012Z,4.60
2022-10-12T23:01:03.810Z,5.70
2022-10-12T23:03:33.861Z,4.70
2022-10-12T23:06:07.700Z,5.40
2022-10-12T23:08:36.308Z,4.37
2022-10-12T23:11:05.756Z,5.10
2022-10-12T23:13:35.915Z,4.50
2022-10-12T23:16:07.381Z,4.90
2022-10-12T23:18:36.260Z,4.03
2022-10-12T23:21:06.446Z,3.70
2022-10-12T23:23:35.475Z,3.93
2022-10-12T23:26:06.029Z,4.17
2022-10-12T23:28:34.308Z,4.47
2022-10-12T23:31:05.890Z,3.30
2022-10-12T23:33:34.326Z,3.70
2022-10-12T23:36:04.538Z,4.17
2022-10-12T23:38:35.006Z,5.33
2022-10-12T23:41:03.297Z,3.63
2022-10-12T23:43:31.885Z,3.40
2022-10-12T23:46:02.597Z,6.53
2022-10-12T23:48:32.757Z,4.70
2022-10-12T23:51:00.891Z,4.60
2022-10-12T23:53:29.151Z,3.30
2022-10-12T23:55:57.165Z,3.83
2022-10-12T23:58:25.179Z,3.90
